sensor_id;sensor_type;location;lat;lon;timestamp;temperature;humidity
26583;DHT22;14230;45.382;10.998;2022-08-26T00:01:54;25.70;99.90
26583;DHT22;14230;45.382;10.998;2022-08-26T00:04:23;25.70;99.90
26583;DHT22;14230;45.382;10.998;2022-08-26T00:06:55;25.60;99.90
26583;DHT22;14230;45.382;10.998;2022-08-26T00:09:23;25.60;99.90
26583;DHT22;14230;45.382;10.998;2022-08-26T00:11:52;25.60;99.90
26583;DHT22;14230;45.382;10.998;2022-08-26T00:14:21;25.50;99.90
26583;DHT22;14230;45.382;10.998;2022-08-26T00:16:56;25.50;99.90
26583;DHT22;14230;45.382;10.998;2022-08-26T00:19:24;25.50;99.90
26583;DHT22;14230;45.382;10.998;2022-08-26T00:21:51;25.50;99.90
26583;DHT22;14230;45.382;10.998;2022-08-26T00:24:19;25.50;99.90
26583;DHT22;14230;45.382;10.998;2022-08-26T00:26:48;25.50;99.90
26583;DHT22;14230;45.382;10.998;2022-08-26T00:29:18;25.40;99.90
26583;DHT22;14230;45.382;10.998;2022-08-26T00:31:50;25.40;99.90
26583;DHT22;14230;45.382;10.998;2022-08-26T00:34:18;25.30;99.90
26583;DHT22;14230;45.382;10.998;2022-08-26T00:36:46;25.30;99.90
26583;DHT22;14230;45.382;10.998;2022-08-26T00:39:19;25.20;99.90
26583;DHT22;14230;45.382;10.998;2022-08-26T00:41:47;25.10;99.90
26583;DHT22;14230;45.382;10.998;2022-08-26T00:44:16;25.00;99.90
26583;DHT22;14230;45.382;10.998;2022-08-26T00:46:47;24.90;99.90
26583;DHT22;14230;45.382;10.998;2022-08-26T00:49:19;24.90;99.90
26583;DHT22;14230;45.382;10.998;2022-08-26T00:51:52;24.80;99.90
26583;DHT22;14230;45.382;10.998;2022-08-26T00:54:22;24.90;99.90
26583;DHT22;14230;45.382;10.998;2022-08-26T00:57:03;24.90;99.90
26583;DHT22;14230;45.382;10.998;2022-08-26T00:59:46;24.90;99.90
26583;DHT22;14230;45.382;10.998;2022-08-26T01:02:14;24.80;99.90
26583;DHT22;14230;45.382;10.998;2022-08-26T01:04:50;24.70;99.90
26583;DHT22;14230;45.382;10.998;2022-08-26T01:07:27;24.70;99.90
26583;DHT22;14230;45.382;10.998;2022-08-26T01:10:00;24.70;99.90
26583;DHT22;14230;45.382;10.998;2022-08-26T01:12:32;24.80;99.90
26583;DHT22;14230;45.382;10.998;2022-08-26T01:15:01;24.80;99.90
26583;DHT22;14230;45.382;10.998;2022-08-26T01:17:31;24.80;99.90
26583;DHT22;14230;45.382;10.998;2022-08-26T01:20:09;24.80;99.90
26583;DHT22;14230;45.382;10.998;2022-08-26T01:22:58;24.90;99.90
26583;DHT22;14230;45.382;10.998;2022-08-26T01:25:32;24.90;99.90
26583;DHT22;14230;45.382;10.998;2022-08-26T01:28:05;24.90;99.90
26583;DHT22;14230;45.382;10.998;2022-08-26T01:30:33;24.90;99.90
26583;DHT22;14230;45.382;10.998;2022-08-26T01:33:08;24.90;99.90
26583;DHT22;14230;45.382;10.998;2022-08-26T01:35:38;24.90;99.90
26583;DHT22;14230;45.382;10.998;2022-08-26T01:38:06;24.90;99.90
26583;DHT22;14230;45.382;10.998;2022-08-26T01:40:36;24.80;99.90
26583;DHT22;14230;45.382;10.998;2022-08-26T01:43:06;24.70;99.90
26583;DHT22;14230;45.382;10.998;2022-08-26T01:45:36;24.70;99.90
26583;DHT22;14230;45.382;10.998;2022-08-26T01:48:11;24.70;99.90
26583;DHT22;14230;45.382;10.998;2022-08-26T01:50:42;24.70;99.90
26583;DHT22;14230;45.382;10.998;2022-08-26T01:53:13;24.60;99.90
26583;DHT22;14230;45.382;10.998;2022-08-26T01:55:46;24.60;99.90
26583;DHT22;14230;45.382;10.998;2022-08-26T01:58:25;24.60;99.90
26583;DHT22;14230;45.382;10.998;2022-08-26T02:00:54;24.60;99.90
26583;DHT22;14230;45.382;10.998;2022-08-26T02:03:22;24.50;99.90
26583;DHT22;14230;45.382;10.998;2022-08-26T02:06:00;24.50;99.90
26583;DHT22;14230;45.382;10.998;2022-08-26T02:08:46;24.60;99.90
26583;DHT22;14230;45.382;10.998;2022-08-26T02:11:17;24.50;99.90
26583;DHT22;14230;45.382;10.998;2022-08-26T02:13:52;24.60;99.90
26583;DHT22;14230;45.382;10.998;2022-08-26T02:16:23;24.50;99.90
26583;DHT22;14230;45.382;10.998;2022-08-26T02:18:53;24.50;99.90
26583;DHT22;14230;45.382;10.998;2022-08-26T02:21:21;24.50;99.90
26583;DHT22;14230;45.382;10.998;2022-08-26T02:23:51;24.60;99.90
26583;DHT22;14230;45.382;10.998;2022-08-26T02:26:23;24.60;99.90
26583;DHT22;14230;45.382;10.998;2022-08-26T02:29:06;24.60;99.90
26583;DHT22;14230;45.382;10.998;2022-08-26T02:31:34;24.50;99.90
26583;DHT22;14230;45.382;10.998;2022-08-26T02:34:12;24.50;99.90
26583;DHT22;14230;45.382;10.998;2022-08-26T02:36:41;24.50;99.90
26583;DHT22;14230;45.382;10.998;2022-08-26T02:39:09;24.50;99.90
26583;DHT22;14230;45.382;10.998;2022-08-26T02:41:37;24.50;99.90
26583;DHT22;14230;45.382;10.998;2022-08-26T02:44:11;24.50;99.90
26583;DHT22;14230;45.382;10.998;2022-08-26T02:46:40;24.50;99.90
26583;DHT22;14230;45.382;10.998;2022-08-26T02:49:14;24.50;99.90
26583;DHT22;14230;45.382;10.998;2022-08-26T02:51:43;24.50;99.90
26583;DHT22;14230;45.382;10.998;2022-08-26T02:54:11;24.50;99.90
26583;DHT22;14230;45.382;10.998;2022-08-26T02:56:39;24.50;99.90
26583;DHT22;14230;45.382;10.998;2022-08-26T02:59:08;24.50;99.90
26583;DHT22;14230;45.382;10.998;2022-08-26T03:01:35;24.50;99.90
26583;DHT22;14230;45.382;10.998;2022-08-26T03:04:04;24.50;99.90
26583;DHT22;14230;45.382;10.998;2022-08-26T03:06:32;24.50;99.90
26583;DHT22;14230;45.382;10.998;2022-08-26T03:09:00;24.60;99.90
26583;DHT22;14230;45.382;10.998;2022-08-26T03:11:28;24.50;99.90
26583;DHT22;14230;45.382;10.998;2022-08-26T03:14:01;24.50;99.90
26583;DHT22;14230;45.382;10.998;2022-08-26T03:16:32;24.50;99.90
26583;DHT22;14230;45.382;10.998;2022-08-26T03:19:01;24.40;99.90
26583;DHT22;14230;45.382;10.998;2022-08-26T03:21:29;24.40;99.90
26583;DHT22;14230;45.382;10.998;2022-08-26T03:23:58;24.40;99.90
26583;DHT22;14230;45.382;10.998;2022-08-26T03:26:27;24.50;99.90
26583;DHT22;14230;45.382;10.998;2022-08-26T03:28:55;24.40;99.90
26583;DHT22;14230;45.382;10.998;2022-08-26T03:31:42;24.40;99.90
26583;DHT22;14230;45.382;10.998;2022-08-26T03:34:13;24.40;99.90
26583;DHT22;14230;45.382;10.998;2022-08-26T03:36:42;24.40;99.90
26583;DHT22;14230;45.382;10.998;2022-08-26T03:39:11;24.30;99.90
26583;DHT22;14230;45.382;10.998;2022-08-26T03:41:40;24.20;99.90
26583;DHT22;14230;45.382;10.998;2022-08-26T03:44:07;24.20;99.90
26583;DHT22;14230;45.382;10.998;2022-08-26T03:46:36;24.20;99.90
26583;DHT22;14230;45.382;10.998;2022-08-26T03:49:04;24.10;99.90
26583;DHT22;14230;45.382;10.998;2022-08-26T03:51:33;24.10;99.90
26583;DHT22;14230;45.382;10.998;2022-08-26T03:54:05;24.20;99.90
26583;DHT22;14230;45.382;10.998;2022-08-26T03:56:35;24.20;99.90
26583;DHT22;14230;45.382;10.998;2022-08-26T03:59:04;24.20;99.90
26583;DHT22;14230;45.382;10.998;2022-08-26T04:01:34;24.20;99.90
26583;DHT22;14230;45.382;10.998;2022-08-26T04:04:03;24.10;99.90
26583;DHT22;14230;45.382;10.998;2022-08-26T04:06:38;24.10;99.90
26583;DHT22;14230;45.382;10.998;2022-08-26T04:09:09;24.20;99.90
26583;DHT22;14230;45.382;10.998;2022-08-26T04:11:39;24.10;99.90
26583;DHT22;14230;45.382;10.998;2022-08-26T04:14:12;24.10;99.90
26583;DHT22;14230;45.382;10.998;2022-08-26T04:16:44;24.10;99.90
26583;DHT22;14230;45.382;10.998;2022-08-26T04:19:14;24.10;99.90
26583;DHT22;14230;45.382;10.998;2022-08-26T04:21:43;24.10;99.90
26583;DHT22;14230;45.382;10.998;2022-08-26T04:24:13;24.10;99.90
26583;DHT22;14230;45.382;10.998;2022-08-26T04:26:42;24.10;99.90
26583;DHT22;14230;45.382;10.998;2022-08-26T04:29:16;24.10;99.90
26583;DHT22;14230;45.382;10.998;2022-08-26T04:31:45;24.10;99.90
26583;DHT22;14230;45.382;10.998;2022-08-26T04:34:15;24.00;99.90
26583;DHT22;14230;45.382;10.998;2022-08-26T04:36:43;24.00;99.90
26583;DHT22;14230;45.382;10.998;2022-08-26T04:39:12;24.00;99.90
26583;DHT22;14230;45.382;10.998;2022-08-26T04:41:47;24.00;99.90
26583;DHT22;14230;45.382;10.998;2022-08-26T04:44:15;24.00;99.90
26583;DHT22;14230;45.382;10.998;2022-08-26T04:46:43;24.00;99.90
26583;DHT22;14230;45.382;10.998;2022-08-26T04:49:12;24.10;99.90
26583;DHT22;14230;45.382;10.998;2022-08-26T04:51:40;24.10;99.90
26583;DHT22;14230;45.382;10.998;2022-08-26T04:54:10;24.10;99.90
26583;DHT22;14230;45.382;10.998;2022-08-26T04:56:40;24.10;99.90
26583;DHT22;14230;45.382;10.998;2022-08-26T04:59:12;24.10;99.90
26583;DHT22;14230;45.382;10.998;2022-08-26T05:01:46;24.20;99.90
26583;DHT22;14230;45.382;10.998;2022-08-26T05:04:17;24.20;99.90
26583;DHT22;14230;45.382;10.998;2022-08-26T05:06:47;24.20;99.90
26583;DHT22;14230;45.382;10.998;2022-08-26T05:09:15;24.20;99.90
26583;DHT22;14230;45.382;10.998;2022-08-26T05:11:45;24.30;99.90
26583;DHT22;14230;45.382;10.998;2022-08-26T05:14:20;24.40;99.90
26583;DHT22;14230;45.382;10.998;2022-08-26T05:16:49;24.40;99.90
26583;DHT22;14230;45.382;10.998;2022-08-26T05:19:18;24.50;99.90
26583;DHT22;14230;45.382;10.998;2022-08-26T05:21:47;24.60;99.90
26583;DHT22;14230;45.382;10.998;2022-08-26T05:24:16;24.70;99.90
26583;DHT22;14230;45.382;10.998;2022-08-26T05:26:47;24.80;99.90
26583;DHT22;14230;45.382;10.998;2022-08-26T05:29:15;24.90;99.90
26583;DHT22;14230;45.382;10.998;2022-08-26T05:31:43;25.00;99.90
26583;DHT22;14230;45.382;10.998;2022-08-26T05:34:11;25.00;99.90
26583;DHT22;14230;45.382;10.998;2022-08-26T05:36:38;25.20;99.90
26583;DHT22;14230;45.382;10.998;2022-08-26T05:39:06;25.30;99.90
26583;DHT22;14230;45.382;10.998;2022-08-26T05:41:38;25.40;99.90
26583;DHT22;14230;45.382;10.998;2022-08-26T05:44:10;25.60;99.90
26583;DHT22;14230;45.382;10.998;2022-08-26T05:46:42;25.70;99.90
26583;DHT22;14230;45.382;10.998;2022-08-26T05:49:12;25.80;99.90
26583;DHT22;14230;45.382;10.998;2022-08-26T05:51:41;25.90;99.90
26583;DHT22;14230;45.382;10.998;2022-08-26T05:54:12;26.00;99.90
26583;DHT22;14230;45.382;10.998;2022-08-26T05:56:50;26.20;99.90
26583;DHT22;14230;45.382;10.998;2022-08-26T05:59:18;26.40;99.90
26583;DHT22;14230;45.382;10.998;2022-08-26T06:01:51;26.60;99.90
26583;DHT22;14230;45.382;10.998;2022-08-26T06:04:22;26.80;99.90
26583;DHT22;14230;45.382;10.998;2022-08-26T06:06:57;27.20;99.90
26583;DHT22;14230;45.382;10.998;2022-08-26T06:09:24;27.90;99.90
26583;DHT22;14230;45.382;10.998;2022-08-26T06:11:53;28.70;99.90
26583;DHT22;14230;45.382;10.998;2022-08-26T06:14:20;29.60;99.90
26583;DHT22;14230;45.382;10.998;2022-08-26T06:16:49;30.40;99.90
26583;DHT22;14230;45.382;10.998;2022-08-26T06:19:16;31.30;99.90
26583;DHT22;14230;45.382;10.998;2022-08-26T06:21:46;32.00;99.90
26583;DHT22;14230;45.382;10.998;2022-08-26T06:24:22;32.60;99.90
26583;DHT22;14230;45.382;10.998;2022-08-26T06:27:08;33.20;99.90
26583;DHT22;14230;45.382;10.998;2022-08-26T06:29:39;33.70;99.90
26583;DHT22;14230;45.382;10.998;2022-08-26T06:32:07;34.30;99.90
26583;DHT22;14230;45.382;10.998;2022-08-26T06:34:35;34.60;99.90
26583;DHT22;14230;45.382;10.998;2022-08-26T06:37:02;35.20;99.90
26583;DHT22;14230;45.382;10.998;2022-08-26T06:39:33;35.30;99.90
26583;DHT22;14230;45.382;10.998;2022-08-26T06:42:01;35.60;99.90
26583;DHT22;14230;45.382;10.998;2022-08-26T06:44:33;35.80;99.90
26583;DHT22;14230;45.382;10.998;2022-08-26T06:47:00;36.30;99.90
26583;DHT22;14230;45.382;10.998;2022-08-26T06:49:28;35.80;99.90
26583;DHT22;14230;45.382;10.998;2022-08-26T06:51:55;36.40;99.90
26583;DHT22;14230;45.382;10.998;2022-08-26T06:54:27;36.90;99.90
26583;DHT22;14230;45.382;10.998;2022-08-26T06:56:57;37.10;99.90
26583;DHT22;14230;45.382;10.998;2022-08-26T06:59:24;37.40;99.90
26583;DHT22;14230;45.382;10.998;2022-08-26T07:01:52;37.90;99.50
26583;DHT22;14230;45.382;10.998;2022-08-26T07:04:21;38.20;97.70
26583;DHT22;14230;45.382;10.998;2022-08-26T07:06:51;38.60;96.30
26583;DHT22;14230;45.382;10.998;2022-08-26T07:09:22;38.60;95.30
26583;DHT22;14230;45.382;10.998;2022-08-26T07:11:50;38.60;94.90
26583;DHT22;14230;45.382;10.998;2022-08-26T07:14:19;39.00;94.30
26583;DHT22;14230;45.382;10.998;2022-08-26T07:16:48;39.40;93.30
26583;DHT22;14230;45.382;10.998;2022-08-26T07:19:17;39.60;92.20
26583;DHT22;14230;45.382;10.998;2022-08-26T07:21:59;39.10;91.70
26583;DHT22;14230;45.382;10.998;2022-08-26T07:24:33;39.20;92.00
26583;DHT22;14230;45.382;10.998;2022-08-26T07:27:04;39.30;90.80
26583;DHT22;14230;45.382;10.998;2022-08-26T07:29:33;39.30;91.20
26583;DHT22;14230;45.382;10.998;2022-08-26T07:32:02;40.10;90.70
26583;DHT22;14230;45.382;10.998;2022-08-26T07:34:30;40.30;90.10
26583;DHT22;14230;45.382;10.998;2022-08-26T07:37:01;40.00;89.80
26583;DHT22;14230;45.382;10.998;2022-08-26T07:39:29;39.90;90.00
26583;DHT22;14230;45.382;10.998;2022-08-26T07:42:02;40.00;90.00
26583;DHT22;14230;45.382;10.998;2022-08-26T07:44:36;40.60;89.30
26583;DHT22;14230;45.382;10.998;2022-08-26T07:47:04;41.00;87.00
26583;DHT22;14230;45.382;10.998;2022-08-26T07:49:50;41.20;86.00
26583;DHT22;14230;45.382;10.998;2022-08-26T07:52:19;40.80;85.30
26583;DHT22;14230;45.382;10.998;2022-08-26T07:54:53;41.00;83.60
26583;DHT22;14230;45.382;10.998;2022-08-26T07:57:21;40.80;84.00
26583;DHT22;14230;45.382;10.998;2022-08-26T07:59:51;40.70;83.70
26583;DHT22;14230;45.382;10.998;2022-08-26T08:02:22;40.30;84.40
26583;DHT22;14230;45.382;10.998;2022-08-26T08:04:50;40.00;84.60
26583;DHT22;14230;45.382;10.998;2022-08-26T08:07:18;40.20;85.00
26583;DHT22;14230;45.382;10.998;2022-08-26T08:09:46;40.40;84.80
26583;DHT22;14230;45.382;10.998;2022-08-26T08:12:18;41.10;83.60
26583;DHT22;14230;45.382;10.998;2022-08-26T08:14:46;40.80;82.10
26583;DHT22;14230;45.382;10.998;2022-08-26T08:17:14;41.00;80.80
26583;DHT22;14230;45.382;10.998;2022-08-26T08:19:42;40.80;81.00
26583;DHT22;14230;45.382;10.998;2022-08-26T08:22:10;40.10;82.10
26583;DHT22;14230;45.382;10.998;2022-08-26T08:24:46;39.80;83.60
26583;DHT22;14230;45.382;10.998;2022-08-26T08:27:19;39.70;83.20
26583;DHT22;14230;45.382;10.998;2022-08-26T08:29:51;39.60;84.40
26583;DHT22;14230;45.382;10.998;2022-08-26T08:32:22;39.30;85.00
26583;DHT22;14230;45.382;10.998;2022-08-26T08:34:50;39.90;82.90
26583;DHT22;14230;45.382;10.998;2022-08-26T08:37:18;40.50;81.90
26583;DHT22;14230;45.382;10.998;2022-08-26T08:39:45;40.30;81.90
26583;DHT22;14230;45.382;10.998;2022-08-26T08:45:00;39.60;83.70
26583;DHT22;14230;45.382;10.998;2022-08-26T08:47:39;40.10;83.00
26583;DHT22;14230;45.382;10.998;2022-08-26T08:53:02;40.20;81.50
26583;DHT22;14230;45.382;10.998;2022-08-26T08:59:18;40.40;82.00
26583;DHT22;14230;45.382;10.998;2022-08-26T09:01:53;40.40;80.50
26583;DHT22;14230;45.382;10.998;2022-08-26T09:07:15;40.30;80.30
26583;DHT22;14230;45.382;10.998;2022-08-26T09:09:54;39.80;80.40
26583;DHT22;14230;45.382;10.998;2022-08-26T09:12:27;39.70;81.20
26583;DHT22;14230;45.382;10.998;2022-08-26T09:15:04;39.50;82.40
26583;DHT22;14230;45.382;10.998;2022-08-26T09:23:03;41.00;78.20
26583;DHT22;14230;45.382;10.998;2022-08-26T09:25:31;41.00;78.80
26583;DHT22;14230;45.382;10.998;2022-08-26T09:28:00;41.20;78.20
26583;DHT22;14230;45.382;10.998;2022-08-26T09:30:32;41.30;78.80
26583;DHT22;14230;45.382;10.998;2022-08-26T09:33:05;41.00;78.20
26583;DHT22;14230;45.382;10.998;2022-08-26T09:35:40;40.30;79.00
26583;DHT22;14230;45.382;10.998;2022-08-26T09:38:32;40.60;79.30
26583;DHT22;14230;45.382;10.998;2022-08-26T09:41:19;40.70;78.60
26583;DHT22;14230;45.382;10.998;2022-08-26T09:44:10;40.80;79.00
26583;DHT22;14230;45.382;10.998;2022-08-26T09:46:51;40.80;79.10
26583;DHT22;14230;45.382;10.998;2022-08-26T09:52:23;40.90;79.40
26583;DHT22;14230;45.382;10.998;2022-08-26T09:57:52;40.60;77.10
26583;DHT22;14230;45.382;10.998;2022-08-26T10:00:40;40.70;75.80
26583;DHT22;14230;45.382;10.998;2022-08-26T10:03:12;40.50;76.80
26583;DHT22;14230;45.382;10.998;2022-08-26T10:06:01;40.50;76.90
26583;DHT22;14230;45.382;10.998;2022-08-26T10:08:50;40.50;77.20
26583;DHT22;14230;45.382;10.998;2022-08-26T10:14:06;40.70;77.50
26583;DHT22;14230;45.382;10.998;2022-08-26T10:16:46;41.20;75.70
26583;DHT22;14230;45.382;10.998;2022-08-26T10:19:18;41.10;74.60
26583;DHT22;14230;45.382;10.998;2022-08-26T10:21:58;40.80;75.70
26583;DHT22;14230;45.382;10.998;2022-08-26T10:24:36;41.00;75.10
26583;DHT22;14230;45.382;10.998;2022-08-26T10:27:09;41.30;73.80
26583;DHT22;14230;45.382;10.998;2022-08-26T10:29:42;41.20;74.60
26583;DHT22;14230;45.382;10.998;2022-08-26T10:32:26;40.70;75.50
26583;DHT22;14230;45.382;10.998;2022-08-26T10:34:57;39.80;76.80
26583;DHT22;14230;45.382;10.998;2022-08-26T10:37:40;39.60;77.10
26583;DHT22;14230;45.382;10.998;2022-08-26T10:40:22;39.10;77.60
26583;DHT22;14230;45.382;10.998;2022-08-26T10:42:54;39.30;78.00
26583;DHT22;14230;45.382;10.998;2022-08-26T10:45:27;39.30;79.30
26583;DHT22;14230;45.382;10.998;2022-08-26T10:50:31;39.10;78.70
26583;DHT22;14230;45.382;10.998;2022-08-26T10:53:09;39.10;80.10
26583;DHT22;14230;45.382;10.998;2022-08-26T10:58:24;38.90;79.10
26583;DHT22;14230;45.382;10.998;2022-08-26T11:01:04;38.70;79.30
26583;DHT22;14230;45.382;10.998;2022-08-26T11:04:02;38.30;80.00
26583;DHT22;14230;45.382;10.998;2022-08-26T11:06:31;37.30;81.30
26583;DHT22;14230;45.382;10.998;2022-08-26T11:09:03;36.70;83.00
26583;DHT22;14230;45.382;10.998;2022-08-26T11:16:57;35.30;88.40
26583;DHT22;14230;45.382;10.998;2022-08-26T11:22:32;34.30;90.40
26583;DHT22;14230;45.382;10.998;2022-08-26T11:25:03;34.30;91.30
26583;DHT22;14230;45.382;10.998;2022-08-26T11:35:04;34.00;91.50
26583;DHT22;14230;45.382;10.998;2022-08-26T11:37:53;33.90;92.20
26583;DHT22;14230;45.382;10.998;2022-08-26T11:40:29;33.90;92.50
26583;DHT22;14230;45.382;10.998;2022-08-26T11:43:05;33.70;92.90
26583;DHT22;14230;45.382;10.998;2022-08-26T11:45:40;33.60;92.80
26583;DHT22;14230;45.382;10.998;2022-08-26T11:48:18;33.60;93.50
26583;DHT22;14230;45.382;10.998;2022-08-26T11:51:22;33.40;94.10
26583;DHT22;14230;45.382;10.998;2022-08-26T11:54:08;33.20;94.00
26583;DHT22;14230;45.382;10.998;2022-08-26T11:56:37;33.00;95.00
26583;DHT22;14230;45.382;10.998;2022-08-26T11:59:10;33.20;96.00
26583;DHT22;14230;45.382;10.998;2022-08-26T12:01:42;33.40;95.80
26583;DHT22;14230;45.382;10.998;2022-08-26T12:04:16;33.50;95.60
26583;DHT22;14230;45.382;10.998;2022-08-26T12:06:50;33.60;95.40
26583;DHT22;14230;45.382;10.998;2022-08-26T12:11:49;33.70;95.60
26583;DHT22;14230;45.382;10.998;2022-08-26T12:14:20;33.80;95.60
26583;DHT22;14230;45.382;10.998;2022-08-26T12:16:48;33.80;95.50
26583;DHT22;14230;45.382;10.998;2022-08-26T12:19:28;33.70;95.40
26583;DHT22;14230;45.382;10.998;2022-08-26T12:22:24;33.70;96.10
26583;DHT22;14230;45.382;10.998;2022-08-26T12:24:56;33.70;95.40
26583;DHT22;14230;45.382;10.998;2022-08-26T12:27:32;33.70;95.20
26583;DHT22;14230;45.382;10.998;2022-08-26T12:30:08;33.40;95.10
26583;DHT22;14230;45.382;10.998;2022-08-26T12:32:45;33.00;96.30
26583;DHT22;14230;45.382;10.998;2022-08-26T12:35:24;32.80;97.10
26583;DHT22;14230;45.382;10.998;2022-08-26T12:37:53;32.80;97.00
26583;DHT22;14230;45.382;10.998;2022-08-26T12:42:59;32.50;97.10
26583;DHT22;14230;45.382;10.998;2022-08-26T12:47:58;32.70;97.80
26583;DHT22;14230;45.382;10.998;2022-08-26T12:50:30;32.80;97.60
26583;DHT22;14230;45.382;10.998;2022-08-26T13:00:48;32.90;97.70
26583;DHT22;14230;45.382;10.998;2022-08-26T13:11:21;33.00;97.40
26583;DHT22;14230;45.382;10.998;2022-08-26T13:13:51;33.00;97.50
26583;DHT22;14230;45.382;10.998;2022-08-26T13:16:20;33.10;97.70
26583;DHT22;14230;45.382;10.998;2022-08-26T13:18:51;33.00;97.40
26583;DHT22;14230;45.382;10.998;2022-08-26T13:21:25;32.90;97.60
26583;DHT22;14230;45.382;10.998;2022-08-26T13:23:53;32.80;97.70
26583;DHT22;14230;45.382;10.998;2022-08-26T13:26:21;32.70;97.90
26583;DHT22;14230;45.382;10.998;2022-08-26T13:28:51;32.70;98.10
26583;DHT22;14230;45.382;10.998;2022-08-26T13:31:30;32.70;98.30
26583;DHT22;14230;45.382;10.998;2022-08-26T13:33:59;32.70;98.50
26583;DHT22;14230;45.382;10.998;2022-08-26T13:36:27;32.70;98.20
26583;DHT22;14230;45.382;10.998;2022-08-26T13:38:55;32.80;98.40
26583;DHT22;14230;45.382;10.998;2022-08-26T13:41:23;32.70;98.80
26583;DHT22;14230;45.382;10.998;2022-08-26T13:43:56;32.70;98.80
26583;DHT22;14230;45.382;10.998;2022-08-26T13:46:26;32.60;99.40
26583;DHT22;14230;45.382;10.998;2022-08-26T13:48:55;32.50;98.70
26583;DHT22;14230;45.382;10.998;2022-08-26T13:51:24;32.60;98.70
26583;DHT22;14230;45.382;10.998;2022-08-26T13:53:52;32.50;98.30
26583;DHT22;14230;45.382;10.998;2022-08-26T13:56:20;32.40;98.60
26583;DHT22;14230;45.382;10.998;2022-08-26T13:58:47;32.60;99.00
26583;DHT22;14230;45.382;10.998;2022-08-26T14:01:16;32.70;99.10
26583;DHT22;14230;45.382;10.998;2022-08-26T14:03:44;32.80;98.20
26583;DHT22;14230;45.382;10.998;2022-08-26T14:06:12;32.60;98.20
26583;DHT22;14230;45.382;10.998;2022-08-26T14:08:40;32.70;98.90
26583;DHT22;14230;45.382;10.998;2022-08-26T14:11:08;32.80;98.60
26583;DHT22;14230;45.382;10.998;2022-08-26T14:13:36;32.90;98.30
26583;DHT22;14230;45.382;10.998;2022-08-26T14:16:08;32.90;98.60
26583;DHT22;14230;45.382;10.998;2022-08-26T14:18:40;32.90;99.00
26583;DHT22;14230;45.382;10.998;2022-08-26T14:21:12;33.00;98.70
26583;DHT22;14230;45.382;10.998;2022-08-26T14:23:40;33.00;98.70
26583;DHT22;14230;45.382;10.998;2022-08-26T14:26:08;33.10;98.50
26583;DHT22;14230;45.382;10.998;2022-08-26T14:28:54;33.10;98.60
26583;DHT22;14230;45.382;10.998;2022-08-26T14:31:22;33.10;99.30
26583;DHT22;14230;45.382;10.998;2022-08-26T14:33:50;33.10;98.00
26583;DHT22;14230;45.382;10.998;2022-08-26T14:36:18;32.80;98.20
26583;DHT22;14230;45.382;10.998;2022-08-26T14:38:56;32.60;98.90
26583;DHT22;14230;45.382;10.998;2022-08-26T14:41:24;32.60;99.20
26583;DHT22;14230;45.382;10.998;2022-08-26T14:44:07;32.60;98.90
26583;DHT22;14230;45.382;10.998;2022-08-26T14:46:38;32.60;99.80
26583;DHT22;14230;45.382;10.998;2022-08-26T14:49:07;32.60;99.60
26583;DHT22;14230;45.382;10.998;2022-08-26T14:51:38;32.80;99.50
26583;DHT22;14230;45.382;10.998;2022-08-26T14:54:07;32.90;99.00
26583;DHT22;14230;45.382;10.998;2022-08-26T14:56:49;32.80;98.90
26583;DHT22;14230;45.382;10.998;2022-08-26T14:59:20;32.50;99.20
26583;DHT22;14230;45.382;10.998;2022-08-26T15:01:48;32.50;99.90
26583;DHT22;14230;45.382;10.998;2022-08-26T15:04:16;32.50;99.90
26583;DHT22;14230;45.382;10.998;2022-08-26T15:06:44;32.50;99.80
26583;DHT22;14230;45.382;10.998;2022-08-26T15:09:12;32.60;99.60
26583;DHT22;14230;45.382;10.998;2022-08-26T15:11:40;32.70;99.90
26583;DHT22;14230;45.382;10.998;2022-08-26T15:14:08;32.70;99.60
26583;DHT22;14230;45.382;10.998;2022-08-26T15:16:46;32.50;99.40
26583;DHT22;14230;45.382;10.998;2022-08-26T15:19:15;32.30;99.90
26583;DHT22;14230;45.382;10.998;2022-08-26T15:21:43;32.20;99.90
26583;DHT22;14230;45.382;10.998;2022-08-26T15:24:12;32.20;99.90
26583;DHT22;14230;45.382;10.998;2022-08-26T15:26:41;32.10;99.90
26583;DHT22;14230;45.382;10.998;2022-08-26T15:29:08;32.10;99.90
26583;DHT22;14230;45.382;10.998;2022-08-26T15:31:36;32.10;99.90
26583;DHT22;14230;45.382;10.998;2022-08-26T15:34:06;32.10;99.90
26583;DHT22;14230;45.382;10.998;2022-08-26T15:36:39;32.00;99.90
26583;DHT22;14230;45.382;10.998;2022-08-26T15:39:09;32.00;99.90
26583;DHT22;14230;45.382;10.998;2022-08-26T15:41:37;32.00;99.90
26583;DHT22;14230;45.382;10.998;2022-08-26T15:44:05;32.00;99.90
26583;DHT22;14230;45.382;10.998;2022-08-26T15:46:33;32.00;99.90
26583;DHT22;14230;45.382;10.998;2022-08-26T15:49:03;31.90;99.90
26583;DHT22;14230;45.382;10.998;2022-08-26T15:51:38;31.90;99.90
26583;DHT22;14230;45.382;10.998;2022-08-26T15:54:13;31.90;99.90
26583;DHT22;14230;45.382;10.998;2022-08-26T15:56:43;31.80;99.90
26583;DHT22;14230;45.382;10.998;2022-08-26T15:59:11;31.70;99.90
26583;DHT22;14230;45.382;10.998;2022-08-26T16:01:38;31.60;99.90
26583;DHT22;14230;45.382;10.998;2022-08-26T16:04:06;31.60;99.90
26583;DHT22;14230;45.382;10.998;2022-08-26T16:06:35;31.50;99.90
26583;DHT22;14230;45.382;10.998;2022-08-26T16:09:04;31.40;99.90
26583;DHT22;14230;45.382;10.998;2022-08-26T16:11:33;31.40;99.90
26583;DHT22;14230;45.382;10.998;2022-08-26T16:14:03;31.30;99.90
26583;DHT22;14230;45.382;10.998;2022-08-26T16:16:31;31.30;99.90
26583;DHT22;14230;45.382;10.998;2022-08-26T16:18:58;31.30;99.90
26583;DHT22;14230;45.382;10.998;2022-08-26T16:21:33;31.20;99.90
26583;DHT22;14230;45.382;10.998;2022-08-26T16:24:02;31.10;99.90
26583;DHT22;14230;45.382;10.998;2022-08-26T16:26:32;31.10;99.90
26583;DHT22;14230;45.382;10.998;2022-08-26T16:29:02;31.10;99.90
26583;DHT22;14230;45.382;10.998;2022-08-26T16:31:31;31.10;99.90
26583;DHT22;14230;45.382;10.998;2022-08-26T16:33:59;31.00;99.90
26583;DHT22;14230;45.382;10.998;2022-08-26T16:36:26;30.90;99.90
26583;DHT22;14230;45.382;10.998;2022-08-26T16:38:54;30.80;99.90
26583;DHT22;14230;45.382;10.998;2022-08-26T16:41:24;30.80;99.90
26583;DHT22;14230;45.382;10.998;2022-08-26T16:43:52;30.80;99.90
26583;DHT22;14230;45.382;10.998;2022-08-26T16:46:21;30.80;99.90
26583;DHT22;14230;45.382;10.998;2022-08-26T16:48:52;30.80;99.90
26583;DHT22;14230;45.382;10.998;2022-08-26T16:51:21;30.80;99.90
26583;DHT22;14230;45.382;10.998;2022-08-26T16:53:50;30.80;99.90